createdAt,value
2023-02-22T00:02:14.126Z,128.40
2023-02-22T00:04:41.949Z,115.28
2023-02-22T00:07:09.851Z,107.45
2023-02-22T00:09:37.623Z,110.93
2023-02-22T00:12:05.523Z,109.32
2023-02-22T00:14:33.760Z,103.43
2023-02-22T00:17:01.605Z,107.95
2023-02-22T00:19:31.228Z,106.60
2023-02-22T00:22:00.236Z,103.38
2023-02-22T00:24:29.595Z,104.88
2023-02-22T00:26:57.410Z,102.85
2023-02-22T00:29:26.272Z,105.82
2023-02-22T00:31:54.405Z,104.55
2023-02-22T00:34:24.336Z,99.95
2023-02-22T00:36:52.257Z,112.38
2023-02-22T00:39:20.428Z,104.00
2023-02-22T00:41:48.268Z,97.85
2023-02-22T00:44:16.102Z,95.38
2023-02-22T00:46:43.896Z,95.60
2023-02-22T00:49:11.706Z,102.15
2023-02-22T00:51:39.636Z,95.80
2023-02-22T00:54:07.934Z,94.80
2023-02-22T00:56:35.673Z,90.03
2023-02-22T00:59:04.567Z,93.65
2023-02-22T01:01:32.505Z,104.80
2023-02-22T01:04:00.381Z,104.03
2023-02-22T01:06:29.422Z,97.18
2023-02-22T01:08:59.317Z,105.15
2023-02-22T01:11:27.070Z,104.50
2023-02-22T01:13:55.684Z,104.75
2023-02-22T01:16:23.962Z,105.97
2023-02-22T01:18:52.114Z,95.20
2023-02-22T01:21:19.990Z,94.65
2023-02-22T01:23:47.877Z,100.57
2023-02-22T01:26:16.301Z,104.63
2023-02-22T01:28:44.140Z,101.53
2023-02-22T01:31:12.784Z,108.68
2023-02-22T01:33:41.622Z,100.53
2023-02-22T01:36:11.629Z,93.35
2023-02-22T01:38:39.788Z,100.32
2023-02-22T01:41:07.896Z,93.40
2023-02-22T01:43:37.703Z,100.35
2023-02-22T01:46:08.356Z,107.95
2023-02-22T01:48:42.358Z,101.45
2023-02-22T01:51:18.538Z,94.63
2023-02-22T01:54:18.892Z,88.63
2023-02-22T01:56:52.835Z,110.15
2023-02-22T01:59:22.207Z,100.93
2023-02-22T02:01:50.150Z,105.00
2023-02-22T02:04:25.609Z,97.28
2023-02-22T02:07:00.433Z,110.85
2023-02-22T02:09:33.149Z,98.53
2023-02-22T02:12:02.799Z,103.97
2023-02-22T02:14:34.452Z,113.28
2023-02-22T02:17:02.288Z,108.55
2023-02-22T02:19:57.174Z,106.50
2023-02-22T02:22:42.896Z,107.10
2023-02-22T02:25:37.830Z,99.95
2023-02-22T02:28:36.591Z,104.13
2023-02-22T02:31:16.775Z,103.45
2023-02-22T02:34:03.217Z,104.47
2023-02-22T02:36:35.148Z,113.03
2023-02-22T02:39:27.658Z,105.82
2023-02-22T02:41:58.208Z,99.22
2023-02-22T02:44:37.934Z,99.03
2023-02-22T02:47:17.703Z,99.53
2023-02-22T02:49:51.935Z,115.95
2023-02-22T02:52:22.603Z,100.93
2023-02-22T02:54:51.573Z,100.78
2023-02-22T02:57:19.339Z,101.82
2023-02-22T02:59:47.187Z,98.38
2023-02-22T03:02:34.327Z,103.97
2023-02-22T03:05:28.181Z,103.13
2023-02-22T03:08:18.491Z,111.15
2023-02-22T03:10:50.541Z,102.68
2023-02-22T03:13:36.476Z,100.38
2023-02-22T03:16:14.836Z,93.80
2023-02-22T03:18:56.210Z,106.65
2023-02-22T03:21:49.215Z,113.40
2023-02-22T03:24:17.008Z,95.65
2023-02-22T03:26:57.172Z,100.50
2023-02-22T03:29:28.376Z,107.90
2023-02-22T03:32:01.699Z,100.15
2023-02-22T03:34:50.825Z,105.20
2023-02-22T03:37:37.617Z,101.65
2023-02-22T03:40:17.177Z,102.43
2023-02-22T03:42:51.687Z,94.78
2023-02-22T03:45:24.867Z,111.90
2023-02-22T03:48:03.399Z,104.25
2023-02-22T03:50:36.023Z,107.55
2023-02-22T03:53:05.625Z,111.22
2023-02-22T03:55:36.390Z,106.85
2023-02-22T03:58:10.973Z,107.55
2023-02-22T04:00:44.719Z,112.50
2023-02-22T04:03:13.153Z,106.63
2023-02-22T04:05:41.016Z,112.93
2023-02-22T04:08:08.767Z,103.60
2023-02-22T04:10:38.065Z,104.18
2023-02-22T04:13:08.960Z,114.22
2023-02-22T04:15:39.370Z,97.45
2023-02-22T04:18:09.950Z,110.90
2023-02-22T04:20:37.743Z,109.10
2023-02-22T04:23:22.597Z,102.22
2023-02-22T04:25:50.413Z,98.97
2023-02-22T04:28:19.379Z,113.00
2023-02-22T04:31:00.125Z,112.30
2023-02-22T04:33:29.094Z,106.38
2023-02-22T04:35:57.895Z,109.78
2023-02-22T04:38:26.528Z,118.35
2023-02-22T04:40:56.297Z,105.13
2023-02-22T04:43:24.363Z,99.22
2023-02-22T04:45:55.129Z,117.55
2023-02-22T04:48:22.964Z,109.57
2023-02-22T04:50:52.271Z,105.18
2023-02-22T04:53:20.442Z,108.63
2023-02-22T04:55:48.127Z,103.70
2023-02-22T04:58:15.922Z,111.38
2023-02-22T05:00:43.723Z,107.82
2023-02-22T05:03:11.507Z,106.82
2023-02-22T05:05:39.460Z,111.22
2023-02-22T05:08:07.850Z,107.40
2023-02-22T05:10:35.580Z,108.57
2023-02-22T05:13:04.273Z,112.20
2023-02-22T05:15:32.124Z,105.22
2023-02-22T05:17:59.835Z,109.03
2023-02-22T05:20:33.364Z,106.72
2023-02-22T05:23:02.799Z,107.15
2023-02-22T05:25:30.607Z,114.18
2023-02-22T05:28:01.513Z,101.10
2023-02-22T05:30:32.710Z,107.65
2023-02-22T05:33:01.048Z,103.35
2023-02-22T05:35:29.551Z,110.47
2023-02-22T05:37:57.815Z,105.38
2023-02-22T05:40:27.260Z,95.15
2023-02-22T05:42:57.105Z,104.00
2023-02-22T05:45:27.560Z,97.05
2023-02-22T05:47:56.323Z,101.40
2023-02-22T05:50:25.115Z,103.15
2023-02-22T05:52:53.741Z,115.72
2023-02-22T05:55:24.103Z,110.03
2023-02-22T05:57:53.053Z,105.10
2023-02-22T06:00:29.493Z,116.57
2023-02-22T06:02:58.544Z,107.15
2023-02-22T06:05:26.714Z,113.28
2023-02-22T06:07:55.123Z,114.43
2023-02-22T06:10:23.559Z,109.65
2023-02-22T06:12:52.581Z,109.63
2023-02-22T06:15:22.014Z,108.57
2023-02-22T06:17:51.014Z,106.10
2023-02-22T06:20:22.755Z,116.25
2023-02-22T06:22:56.064Z,106.38
2023-02-22T06:25:26.683Z,112.68
2023-02-22T06:27:54.589Z,103.45
2023-02-22T06:30:24.404Z,91.90
2023-02-22T06:32:52.433Z,108.97
2023-02-22T06:35:20.428Z,118.32
2023-02-22T06:37:48.286Z,98.72
2023-02-22T06:40:16.389Z,101.82
2023-02-22T06:42:44.414Z,116.05
2023-02-22T06:45:12.266Z,107.63
2023-02-22T06:47:41.412Z,107.85
2023-02-22T06:50:25.816Z,99.00
2023-02-22T06:52:55.067Z,100.32
2023-02-22T06:55:25.293Z,104.28
2023-02-22T06:57:53.486Z,105.22
2023-02-22T07:00:25.208Z,109.15
2023-02-22T07:02:54.130Z,108.85
2023-02-22T07:05:23.352Z,106.07
2023-02-22T07:07:53.553Z,100.55
2023-02-22T07:10:30.161Z,105.78
2023-02-22T07:12:58.048Z,110.78
2023-02-22T07:15:28.089Z,118.65
2023-02-22T07:17:56.636Z,105.18
2023-02-22T07:20:26.640Z,102.30
2023-02-22T07:22:54.860Z,112.97
2023-02-22T07:25:24.261Z,106.30
2023-02-22T07:27:53.087Z,117.05
2023-02-22T07:31:35.642Z,111.65
2023-02-22T07:34:28.997Z,110.90
2023-02-22T07:36:56.924Z,96.15
2023-02-22T07:39:24.826Z,109.72
2023-02-22T07:41:53.659Z,118.85
2023-02-22T07:44:24.959Z,112.10
2023-02-22T07:46:52.755Z,119.32
2023-02-22T07:49:20.530Z,107.10
2023-02-22T07:51:48.388Z,108.75
2023-02-22T07:54:16.328Z,110.45
2023-02-22T07:56:48.680Z,110.30
2023-02-22T07:59:16.793Z,106.25
2023-02-22T08:01:44.698Z,110.18
2023-02-22T08:04:12.630Z,111.72
2023-02-22T08:06:40.532Z,106.68
2023-02-22T08:09:08.281Z,114.72
2023-02-22T08:11:36.085Z,102.32
2023-02-22T08:14:04.696Z,100.43
2023-02-22T08:16:32.871Z,113.68
2023-02-22T08:19:00.938Z,108.85
2023-02-22T08:21:28.878Z,110.20
2023-02-22T08:23:56.803Z,104.85
2023-02-22T08:26:25.676Z,105.57
2023-02-22T08:28:53.744Z,110.70
2023-02-22T08:31:24.683Z,110.90
2023-02-22T08:33:52.506Z,111.70
2023-02-22T08:36:20.417Z,108.03
2023-02-22T08:38:48.430Z,107.53
2023-02-22T08:41:16.597Z,109.82
2023-02-22T08:43:44.533Z,107.82
2023-02-22T08:46:12.515Z,108.30
2023-02-22T08:48:50.671Z,106.18
2023-02-22T08:51:21.090Z,107.72
2023-02-22T08:53:48.996Z,102.88
2023-02-22T08:56:16.663Z,106.10
2023-02-22T08:58:44.752Z,91.55
2023-02-22T09:01:14.024Z,98.35
2023-02-22T09:03:43.431Z,99.55
2023-02-22T09:06:11.205Z,95.55
2023-02-22T09:08:45.318Z,99.22
2023-02-22T09:11:13.460Z,90.70
2023-02-22T09:13:41.348Z,85.82
2023-02-22T09:16:11.348Z,93.40
2023-02-22T09:18:44.322Z,99.38
2023-02-22T09:21:12.477Z,99.37
2023-02-22T09:23:41.737Z,101.53
2023-02-22T09:26:11.086Z,88.47
2023-02-22T09:28:38.959Z,88.35
2023-02-22T09:31:06.742Z,89.53
2023-02-22T09:33:35.110Z,96.95
2023-02-22T09:36:03.249Z,85.43
2023-02-22T09:38:32.836Z,101.13
2023-02-22T09:41:20.745Z,90.40
2023-02-22T09:43:56.487Z,92.70
2023-02-22T09:46:34.050Z,86.43
2023-02-22T09:49:26.497Z,79.10
2023-02-22T09:52:12.141Z,79.38
2023-02-22T09:54:54.142Z,87.07
2023-02-22T09:57:48.203Z,77.82
2023-02-22T10:00:18.730Z,71.85
2023-02-22T10:03:21.788Z,82.50
2023-02-22T10:06:01.282Z,70.63
2023-02-22T10:08:34.096Z,73.18
2023-02-22T10:11:16.282Z,74.80
2023-02-22T10:13:51.194Z,82.47
2023-02-22T10:17:01.066Z,75.15
2023-02-22T10:19:44.630Z,75.25
2023-02-22T10:22:34.043Z,78.07
2023-02-22T10:25:05.022Z,70.28
2023-02-22T10:27:59.385Z,70.82
2023-02-22T10:30:37.362Z,77.53
2023-02-22T10:33:13.138Z,80.78
2023-02-22T10:35:47.115Z,84.97
2023-02-22T10:38:24.481Z,82.22
2023-02-22T10:41:19.325Z,81.80
2023-02-22T10:46:21.349Z,81.07
2023-02-22T10:48:53.316Z,77.13
2023-02-22T10:51:21.551Z,80.28
2023-02-22T10:54:09.558Z,77.05
2023-02-22T10:56:55.733Z,89.68
2023-02-22T10:59:33.667Z,83.32
2023-02-22T11:02:11.057Z,78.75
2023-02-22T11:04:49.800Z,71.18
2023-02-22T11:07:24.095Z,69.70
2023-02-22T11:09:55.201Z,73.30
2023-02-22T11:12:41.566Z,71.03
2023-02-22T11:15:22.416Z,78.20
2023-02-22T11:17:55.595Z,70.70
2023-02-22T11:20:30.124Z,80.15
2023-02-22T11:23:02.134Z,70.88
2023-02-22T11:25:36.878Z,82.70
2023-02-22T11:28:31.234Z,78.20
2023-02-22T11:31:18.505Z,73.57
2023-02-22T11:36:37.924Z,84.07
2023-02-22T11:39:20.655Z,76.30
2023-02-22T11:41:51.172Z,68.15
2023-02-22T11:44:31.455Z,81.30
2023-02-22T11:47:07.183Z,81.00
2023-02-22T11:49:38.557Z,84.22
2023-02-22T11:52:16.491Z,84.40
2023-02-22T11:55:12.072Z,79.65
2023-02-22T11:58:18.479Z,85.85
2023-02-22T12:01:07.354Z,82.65
2023-02-22T12:04:15.856Z,82.35
2023-02-22T12:07:08.535Z,78.93
2023-02-22T12:10:19.578Z,86.30
2023-02-22T12:13:24.111Z,75.68
2023-02-22T12:16:23.931Z,84.53
2023-02-22T12:19:09.691Z,81.40
2023-02-22T12:21:42.005Z,86.47
2023-02-22T12:24:14.644Z,75.32
2023-02-22T12:26:48.509Z,84.10
2023-02-22T12:29:37.841Z,84.60
2023-02-22T12:32:16.435Z,84.72
2023-02-22T12:34:55.281Z,78.95
2023-02-22T12:37:56.112Z,80.43
2023-02-22T12:40:37.115Z,81.40
2023-02-22T12:43:17.598Z,87.13
2023-02-22T12:45:52.285Z,79.80
2023-02-22T12:48:47.697Z,75.78
2023-02-22T12:51:26.020Z,84.13
2023-02-22T12:54:21.947Z,82.07
2023-02-22T12:56:56.358Z,84.68
2023-02-22T12:59:35.950Z,86.20
2023-02-22T13:02:17.036Z,89.30
2023-02-22T13:04:44.997Z,89.32
2023-02-22T13:07:25.724Z,80.35
2023-02-22T13:10:02.898Z,78.47
2023-02-22T13:12:36.799Z,81.30
2023-02-22T13:15:10.990Z,91.82
2023-02-22T13:20:27.901Z,77.57
2023-02-22T13:23:37.636Z,77.22
2023-02-22T13:26:26.316Z,75.10
2023-02-22T13:29:16.695Z,76.95
2023-02-22T13:32:14.836Z,82.50
2023-02-22T13:35:20.237Z,77.60
2023-02-22T13:37:50.765Z,80.57
2023-02-22T13:40:30.350Z,83.68
2023-02-22T13:43:35.573Z,78.30
2023-02-22T13:49:14.233Z,75.03
2023-02-22T13:51:55.921Z,78.10
2023-02-22T13:54:56.354Z,73.28
2023-02-22T13:57:39.658Z,79.35
2023-02-22T14:00:16.605Z,85.13
2023-02-22T14:02:58.658Z,80.78
2023-02-22T14:05:42.533Z,78.00
2023-02-22T14:08:19.397Z,81.47
2023-02-22T14:10:52.317Z,81.78
2023-02-22T14:13:22.830Z,81.70
2023-02-22T14:16:02.787Z,86.95
2023-02-22T14:18:44.354Z,79.72
2023-02-22T14:21:15.937Z,78.95
2023-02-22T14:23:52.229Z,90.03
2023-02-22T14:26:32.391Z,81.10
2023-02-22T14:29:14.593Z,87.97
2023-02-22T14:31:46.732Z,75.03
2023-02-22T14:34:17.751Z,73.72
2023-02-22T14:36:54.790Z,84.55
2023-02-22T14:39:26.000Z,77.50
2023-02-22T14:42:01.741Z,79.30
2023-02-22T14:44:37.468Z,79.70
2023-02-22T14:47:08.601Z,76.07
2023-02-22T14:49:41.677Z,70.40
2023-02-22T14:52:21.983Z,72.45
2023-02-22T14:54:53.242Z,84.00
2023-02-22T14:57:29.605Z,78.88
2023-02-22T15:00:23.435Z,81.88
2023-02-22T15:02:57.478Z,74.97
2023-02-22T15:08:04.568Z,68.88
2023-02-22T15:10:43.176Z,71.75
2023-02-22T15:13:18.904Z,71.68
2023-02-22T15:15:49.831Z,70.65
2023-02-22T15:18:20.654Z,75.15
2023-02-22T15:20:56.254Z,70.18
2023-02-22T15:23:33.474Z,74.57
2023-02-22T15:26:02.465Z,73.28
2023-02-22T15:28:31.308Z,84.38
2023-02-22T15:31:24.130Z,79.32
2023-02-22T15:33:53.871Z,84.28
2023-02-22T15:36:27.898Z,75.50
2023-02-22T15:38:56.941Z,75.65
2023-02-22T15:41:34.321Z,74.80
2023-02-22T15:44:23.326Z,73.75
2023-02-22T15:46:55.309Z,86.00
2023-02-22T15:49:24.737Z,81.38
2023-02-22T15:52:09.746Z,83.05
2023-02-22T15:54:41.842Z,78.47
2023-02-22T15:57:13.181Z,70.38
2023-02-22T15:59:53.761Z,81.43
2023-02-22T16:02:32.801Z,78.45
2023-02-22T16:05:05.180Z,70.13
2023-02-22T16:07:34.072Z,81.53
2023-02-22T16:10:09.397Z,81.18
2023-02-22T16:12:37.507Z,79.45
2023-02-22T16:15:17.014Z,77.75
2023-02-22T16:18:00.845Z,76.45
2023-02-22T16:20:32.559Z,69.80
2023-02-22T16:23:00.490Z,77.32
2023-02-22T16:25:35.829Z,65.65
2023-02-22T16:28:30.898Z,74.65
2023-02-22T16:30:59.058Z,74.90
2023-02-22T16:33:31.168Z,73.38
2023-02-22T16:35:59.129Z,78.53
2023-02-22T16:38:27.628Z,69.07
2023-02-22T16:40:58.154Z,82.75
2023-02-22T16:43:31.607Z,79.55
2023-02-22T16:46:01.810Z,75.50
2023-02-22T16:48:32.762Z,85.65
2023-02-22T16:51:09.880Z,79.55
2023-02-22T16:53:37.865Z,80.95
2023-02-22T16:56:10.108Z,86.05
2023-02-22T16:58:41.094Z,90.63
2023-02-22T17:01:09.789Z,79.82
2023-02-22T17:03:37.674Z,87.28
2023-02-22T17:06:05.914Z,74.15
2023-02-22T17:08:33.881Z,84.45
2023-02-22T17:11:01.789Z,76.22
2023-02-22T17:13:29.940Z,75.60
2023-02-22T17:15:58.579Z,86.97
2023-02-22T17:18:29.056Z,77.82
2023-02-22T17:20:57.202Z,83.82
2023-02-22T17:23:27.942Z,80.35
2023-02-22T17:26:05.096Z,85.88
2023-02-22T17:28:33.040Z,84.57
2023-02-22T17:31:02.072Z,91.05
2023-02-22T17:33:35.144Z,89.00
2023-02-22T17:36:05.079Z,87.45
2023-02-22T17:38:34.680Z,93.00
2023-02-22T17:41:03.483Z,91.55
2023-02-22T17:43:31.411Z,90.90
2023-02-22T17:45:59.405Z,94.75
2023-02-22T17:48:27.394Z,99.85
2023-02-22T17:50:55.372Z,96.68
2023-02-22T17:53:25.113Z,92.63
2023-02-22T17:55:53.212Z,91.97
2023-02-22T17:58:21.188Z,96.07
2023-02-22T18:00:51.071Z,95.47
2023-02-22T18:03:25.416Z,113.78
2023-02-22T18:06:00.494Z,125.22
2023-02-22T18:08:31.187Z,104.40
2023-02-22T18:11:05.408Z,97.10
2023-02-22T18:16:01.238Z,106.68
2023-02-22T18:18:29.747Z,107.32
2023-02-22T18:21:01.599Z,99.95
2023-02-22T18:23:31.670Z,103.95
2023-02-22T18:26:11.888Z,105.13
2023-02-22T18:28:40.871Z,106.90
2023-02-22T18:31:15.173Z,108.30
2023-02-22T18:33:48.997Z,123.15
2023-02-22T18:36:23.615Z,107.97
2023-02-22T18:38:54.161Z,107.18
2023-02-22T18:41:27.203Z,111.07
2023-02-22T18:43:57.732Z,98.32
2023-02-22T18:46:25.809Z,98.80
2023-02-22T18:48:55.919Z,100.03
2023-02-22T18:51:25.656Z,114.85
2023-02-22T18:54:00.702Z,111.03
2023-02-22T18:56:34.151Z,108.68
2023-02-22T18:59:03.904Z,117.23
2023-02-22T19:01:38.830Z,116.22
2023-02-22T19:04:10.558Z,108.47
2023-02-22T19:06:40.559Z,106.53
2023-02-22T19:09:08.779Z,102.53
2023-02-22T19:11:37.407Z,105.07
2023-02-22T19:14:09.090Z,113.35
2023-02-22T19:16:37.562Z,99.13
2023-02-22T19:19:05.812Z,119.05
2023-02-22T19:21:33.779Z,118.45
2023-02-22T19:24:02.049Z,114.32
2023-02-22T19:26:32.671Z,119.00
2023-02-22T19:29:05.060Z,106.88
2023-02-22T19:31:34.153Z,111.00
2023-02-22T19:34:11.200Z,118.22
2023-02-22T19:36:40.929Z,123.13
2023-02-22T19:39:09.055Z,112.00
2023-02-22T19:41:38.302Z,116.43
2023-02-22T19:44:10.054Z,106.05
2023-02-22T19:46:38.666Z,117.40
2023-02-22T19:49:07.573Z,120.07
2023-02-22T19:51:36.060Z,117.10
2023-02-22T19:54:06.701Z,112.90
2023-02-22T19:56:35.633Z,114.57
2023-02-22T19:59:13.404Z,119.43
2023-02-22T20:01:46.307Z,131.27
2023-02-22T20:04:26.323Z,116.30
2023-02-22T20:06:55.055Z,120.90
2023-02-22T20:09:30.098Z,119.57
2023-02-22T20:11:58.256Z,125.55
2023-02-22T20:14:28.808Z,116.88
2023-02-22T20:16:58.181Z,114.32
2023-02-22T20:19:27.783Z,118.55
2023-02-22T20:21:56.257Z,112.30
2023-02-22T20:24:25.397Z,111.63
2023-02-22T20:26:55.992Z,113.60
2023-02-22T20:29:29.911Z,112.63
2023-02-22T20:32:02.436Z,119.07
2023-02-22T20:34:35.255Z,113.65
2023-02-22T20:37:05.032Z,107.38
2023-02-22T20:39:33.257Z,110.05
2023-02-22T20:42:02.912Z,114.10
2023-02-22T20:44:31.391Z,120.03
2023-02-22T20:46:59.238Z,123.10
2023-02-22T20:49:27.584Z,119.47
2023-02-22T20:51:55.874Z,118.93
2023-02-22T20:54:23.846Z,118.90
2023-02-22T20:56:53.064Z,124.38
2023-02-22T20:59:22.908Z,125.72
2023-02-22T21:01:53.189Z,118.85
2023-02-22T21:04:27.112Z,119.85
2023-02-22T21:06:55.752Z,123.55
2023-02-22T21:09:23.958Z,132.98
2023-02-22T21:11:51.889Z,128.50
2023-02-22T21:14:20.396Z,116.82
2023-02-22T21:16:50.569Z,115.90
2023-02-22T21:19:25.934Z,128.80
2023-02-22T21:21:59.032Z,124.70
2023-02-22T21:24:29.446Z,123.47
2023-02-22T21:27:00.461Z,124.90
2023-02-22T21:29:29.589Z,129.93
2023-02-22T21:31:57.922Z,115.25
2023-02-22T21:34:30.395Z,114.53
2023-02-22T21:36:58.436Z,117.70
2023-02-22T21:39:29.185Z,125.50
2023-02-22T21:42:00.882Z,121.03
2023-02-22T21:44:29.742Z,120.10
2023-02-22T21:46:57.765Z,120.80
2023-02-22T21:49:25.798Z,107.20
2023-02-22T21:51:53.664Z,112.95
2023-02-22T21:54:23.841Z,112.57
2023-02-22T21:56:52.190Z,108.88
2023-02-22T21:59:23.940Z,121.47
2023-02-22T22:01:57.874Z,110.38
2023-02-22T22:04:31.587Z,119.80
2023-02-22T22:07:01.639Z,126.60
2023-02-22T22:09:33.366Z,129.25
2023-02-22T22:12:05.193Z,112.00
2023-02-22T22:14:34.922Z,118.82
2023-02-22T22:17:05.862Z,118.85
2023-02-22T22:19:44.144Z,107.85
2023-02-22T22:22:16.742Z,127.40
2023-02-22T22:24:46.237Z,118.55
2023-02-22T22:27:15.262Z,119.88
2023-02-22T22:29:43.691Z,122.90
2023-02-22T22:32:12.000Z,118.45
2023-02-22T22:34:39.980Z,126.43
2023-02-22T22:37:08.847Z,120.35
2023-02-22T22:39:38.705Z,108.88
2023-02-22T22:42:06.498Z,114.60
2023-02-22T22:44:42.297Z,121.25
2023-02-22T22:47:13.290Z,120.50
2023-02-22T22:49:41.204Z,123.80
2023-02-22T22:52:10.577Z,118.63
2023-02-22T22:54:38.560Z,126.38
2023-02-22T22:57:07.747Z,129.07
2023-02-22T23:02:32.853Z,125.63
2023-02-22T23:05:00.693Z,130.43
2023-02-22T23:07:28.429Z,112.30
2023-02-22T23:09:56.949Z,119.72
2023-02-22T23:12:31.584Z,109.72
2023-02-22T23:14:59.394Z,108.93
2023-02-22T23:17:31.163Z,119.55
2023-02-22T23:19:59.300Z,113.85
2023-02-22T23:22:27.949Z,130.05
2023-02-22T23:24:55.667Z,124.82
2023-02-22T23:27:23.839Z,119.72
2023-02-22T23:29:52.656Z,110.72
2023-02-22T23:32:20.493Z,104.68
2023-02-22T23:34:51.174Z,110.25
2023-02-22T23:37:20.905Z,115.03
2023-02-22T23:39:51.058Z,114.60
2023-02-22T23:42:18.825Z,116.32
2023-02-22T23:44:47.942Z,114.97
2023-02-22T23:47:16.184Z,120.32
2023-02-22T23:49:49.473Z,125.82
2023-02-22T23:52:24.342Z,104.13
2023-02-22T23:54:54.086Z,105.13
2023-02-22T23:57:21.990Z,120.75
2023-02-22T23:59:51.592Z,117.60
